Mimer — OIZX — position and weather

sailwx.info

Track history (hours):
 
Tides and Currents Weather Stations Pressure Air Temp Water Temp Dewpoint Dewpoint Depression Visibility Wind Speed Wind Dir Waves Ship Positions

Mimer

Last reported at 2018-Jul-14 09:04 UTC. Time now 2018-Jul-15 18:58 UTC.
Position N 18°09' W 063°36'.

Length 108 m; draft 5.2 m.

Type: Ship (hazmat cat A). MMSI: 230185000.

Date/timePositionNaut miles runAvg speedWind from/ knotsBaromVisibWave heightAir tempDewpointWater temp
2018-Jul-14 09:04N 18°09' W 063°36'2 7.1
2018-Jul-14 08:49N 18°08' W 063°35'2 7.2
2018-Jul-14 08:30N 18°08' W 063°32'4 7.2
2018-Jul-14 07:59N 18°08' W 063°28'4 7.2
2018-Jul-14 07:29N 18°07' W 063°24'3 7.2
2018-Jul-14 07:00N 18°07' W 063°21'4 7.3
2018-Jul-14 06:26N 18°06' W 063°16'3 7.3
2018-Jul-14 05:59N 18°06' W 063°13'4 7.5
2018-Jul-14 05:24N 18°06' W 063°08'3 7.5
2018-Jul-14 05:00N 18°05' W 063°05'0 0.5
2018-Jul-14 04:29N 18°05' W 063°05'0 0.0
2018-Jul-14 04:00N 18°05' W 063°05'0 0.0
2018-Jul-14 03:29N 18°05' W 063°05'0 0.0
2018-Jul-14 02:47N 18°05' W 063°05'0 0.0
2018-Jul-14 02:29N 18°05' W 063°05'0 0.0
2018-Jul-14 01:50N 18°05' W 063°05'0 0.0
2018-Jul-14 01:29N 18°05' W 063°05'0 0.4
2018-Jul-14 00:57N 18°05' W 063°05'3 5.3
2018-Jul-14 00:25N 18°06' W 063°08'4 7.9
2018-Jul-13 23:54N 18°06' W 063°12'512.6
2018-Jul-13 23:29N 18°06' W 063°18'612.4
2018-Jul-13 23:00N 18°07' W 063°24'  
2018-Jul-07 09:50N 18°12' W 063°38'513.9
2018-Jul-07 09:29N 18°11' W 063°33'714.0
2018-Jul-07 09:00N 18°09' W 063°26'713.7
2018-Jul-07 08:30N 18°08' W 063°19'714.1
2018-Jul-07 07:59N 18°06' W 063°12'710.4
2018-Jul-07 07:21N 18°05' W 063°05'0 0.0
2018-Jul-07 06:55N 18°05' W 063°05'0 0.0
2018-Jul-07 06:28N 18°05' W 063°05'0 0.0
2018-Jul-07 05:58N 18°05' W 063°05'0 0.0
2018-Jul-07 05:28N 18°05' W 063°05'0 0.0
2018-Jul-07 04:58N 18°05' W 063°05'0 0.0
2018-Jul-07 04:28N 18°05' W 063°05'1 1.1
2018-Jul-07 03:58N 18°05' W 063°06'611.0
2018-Jul-07 03:27N 18°06' W 063°11'612.4
2018-Jul-07 02:57N 18°06' W 063°18'612.2
2018-Jul-07 02:30N 18°07' W 063°24'  
Track history (hours):
 
Tides and Currents Weather Stations Pressure Air Temp Water Temp Dewpoint Dewpoint Depression Visibility Wind Speed Wind Dir Waves Ship Positions

Mimer

Last reported at 2018-Jul-14 09:04 UTC. Time now 2018-Jul-15 18:58 UTC.
Position N 18°09' W 063°36'.

Length 108 m; draft 5.2 m.

Type: Ship (hazmat cat A). MMSI: 230185000.

Date/timePositionNaut miles runAvg speedWind from/ knotsBaromVisibWave heightAir tempDewpointWater temp
2018-Jul-14 09:04N 18°09' W 063°36'2 7.1
2018-Jul-14 08:49N 18°08' W 063°35'2 7.2
2018-Jul-14 08:30N 18°08' W 063°32'4 7.2
2018-Jul-14 07:59N 18°08' W 063°28'4 7.2
2018-Jul-14 07:29N 18°07' W 063°24'3 7.2
2018-Jul-14 07:00N 18°07' W 063°21'4 7.3
2018-Jul-14 06:26N 18°06' W 063°16'3 7.3
2018-Jul-14 05:59N 18°06' W 063°13'4 7.5
2018-Jul-14 05:24N 18°06' W 063°08'3 7.5
2018-Jul-14 05:00N 18°05' W 063°05'0 0.5
2018-Jul-14 04:29N 18°05' W 063°05'0 0.0
2018-Jul-14 04:00N 18°05' W 063°05'0 0.0
2018-Jul-14 03:29N 18°05' W 063°05'0 0.0
2018-Jul-14 02:47N 18°05' W 063°05'0 0.0
2018-Jul-14 02:29N 18°05' W 063°05'0 0.0
2018-Jul-14 01:50N 18°05' W 063°05'0 0.0
2018-Jul-14 01:29N 18°05' W 063°05'0 0.4
2018-Jul-14 00:57N 18°05' W 063°05'3 5.3
2018-Jul-14 00:25N 18°06' W 063°08'4 7.9
2018-Jul-13 23:54N 18°06' W 063°12'512.6
2018-Jul-13 23:29N 18°06' W 063°18'612.4
2018-Jul-13 23:00N 18°07' W 063°24'  
2018-Jul-07 09:50N 18°12' W 063°38'513.9
2018-Jul-07 09:29N 18°11' W 063°33'714.0
2018-Jul-07 09:00N 18°09' W 063°26'713.7
2018-Jul-07 08:30N 18°08' W 063°19'714.1
2018-Jul-07 07:59N 18°06' W 063°12'710.4
2018-Jul-07 07:21N 18°05' W 063°05'0 0.0
2018-Jul-07 06:55N 18°05' W 063°05'0 0.0
2018-Jul-07 06:28N 18°05' W 063°05'0 0.0
2018-Jul-07 05:58N 18°05' W 063°05'0 0.0
2018-Jul-07 05:28N 18°05' W 063°05'0 0.0
2018-Jul-07 04:58N 18°05' W 063°05'0 0.0
2018-Jul-07 04:28N 18°05' W 063°05'1 1.1
2018-Jul-07 03:58N 18°05' W 063°06'611.0
2018-Jul-07 03:27N 18°06' W 063°11'612.4
2018-Jul-07 02:57N 18°06' W 063°18'612.2
2018-Jul-07 02:30N 18°07' W 063°24'  

Dump ship's entire track history